Time;durP1;ratioP1;P1;durP2;ratioP2;P2;SDS_P1;SDS_P2;PMS_P1;PMS_P2;Temp;Humidity;BMP_temperature;BMP_pressure;BME280_temperature;BME280_humidity;BME280_pressure;Samples;Min_cycle;Max_cycle;Signal;HPM_P1;HPM_P2
2021/09/01 00:02:19;;;;;;;4.57;1.45;;;;;;;;;;4998810;28;20777;-56
2021/09/01 00:04:45;;;;;;;11.75;2.40;;;;;;;;;;5001687;28;20577;-56
2021/09/01 00:07:11;;;;;;;7.45;2.20;;;;;;;;;;5001431;28;20042;-55
2021/09/01 00:09:37;;;;;;;4.85;2.10;;;;;;;;;;5000193;28;21179;-55
2021/09/01 00:12:03;;;;;;;6.03;2.35;;;;;;;;;;5000523;28;20038;-54
2021/09/01 00:14:29;;;;;;;6.53;2.30;;;;;;;;;;4998466;28;20480;-54
2021/09/01 00:16:55;;;;;;;7.70;3.22;;;;;;;;;;5000076;28;20071;-53
2021/09/01 00:19:21;;;;;;;5.05;2.25;;;;;;;;;;4999437;28;20193;-55
2021/09/01 00:21:47;;;;;;;3.80;1.58;;;;;;;;;;5000617;28;20048;-55
2021/09/01 00:24:13;;;;;;;5.60;2.63;;;;;;;;;;4998750;28;20038;-53
2021/09/01 00:26:38;;;;;;;5.65;2.60;;;;;;;;;;4999794;28;20212;-56
2021/09/01 00:29:04;;;;;;;6.82;2.67;;;;;;;;;;5000608;28;20044;-55
2021/09/01 00:31:37;;;;;;;7.10;3.00;;;;;;;;;;4998205;28;20424;-55
2021/09/01 00:34:02;;;;;;;4.38;2.30;;;;;;;;;;5000471;28;20053;-56
2021/09/01 00:36:28;;;;;;;6.43;2.60;;;;;;;;;;4999516;28;20065;-55
2021/09/01 00:38:54;;;;;;;5.65;2.53;;;;;;;;;;5000295;28;20895;-56
2021/09/01 00:41:26;;;;;;;5.97;2.47;;;;;;;;;;5001137;28;20092;-57
2021/09/01 00:43:53;;;;;;;6.90;3.03;;;;;;;;;;5002555;28;20040;-56
2021/09/01 00:46:19;;;;;;;5.25;2.85;;;;;;;;;;5001981;28;20041;-56
2021/09/01 00:48:45;;;;;;;6.47;2.65;;;;;;;;;;5002735;28;20046;-55
2021/09/01 00:51:11;;;;;;;8.30;3.40;;;;;;;;;;4999862;28;20070;-56
2021/09/01 00:53:39;;;;;;;4.60;2.65;;;;;;;;;;4998817;28;20134;-56
2021/09/01 00:56:04;;;;;;;5.30;2.63;;;;;;;;;;4980465;28;21042;-56
2021/09/01 00:58:36;;;;;;;5.97;2.60;;;;;;;;;;4999118;28;20056;-56
2021/09/01 01:01:15;;;;;;;3.58;1.85;;;;;;;;;;5000066;28;20041;-54
2021/09/01 01:03:50;;;;;;;9.70;2.10;;;;;;;;;;4999201;28;20041;-56
2021/09/01 01:06:24;;;;;;;4.68;1.77;;;;;;;;;;5001146;28;20034;-56
2021/09/01 01:08:50;;;;;;;7.07;2.50;;;;;;;;;;4999533;28;20052;-56
2021/09/01 01:11:16;;;;;;;4.18;2.20;;;;;;;;;;5001791;28;20082;-56
2021/09/01 01:13:45;;;;;;;4.20;2.22;;;;;;;;;;5003060;28;20046;-55
2021/09/01 01:16:18;;;;;;;4.88;2.20;;;;;;;;;;5003247;28;20172;-56
2021/09/01 01:18:46;;;;;;;8.02;2.60;;;;;;;;;;4980709;28;20061;-56
2021/09/01 01:21:15;;;;;;;3.25;1.55;;;;;;;;;;5000693;28;20764;-55
2021/09/01 01:23:40;;;;;;;4.93;2.22;;;;;;;;;;5001928;28;20387;-53
2021/09/01 01:26:06;;;;;;;5.13;2.42;;;;;;;;;;4983897;28;20077;-56
2021/09/01 01:28:32;;;;;;;4.32;2.15;;;;;;;;;;5000699;28;20029;-56
2021/09/01 01:30:58;;;;;;;6.38;2.80;;;;;;;;;;4999772;28;20606;-56
2021/09/01 01:33:24;;;;;;;6.57;3.13;;;;;;;;;;5001451;28;20150;-55
2021/09/01 01:35:50;;;;;;;5.75;2.60;;;;;;;;;;5001307;28;20093;-55
2021/09/01 01:38:17;;;;;;;5.53;2.40;;;;;;;;;;4999550;28;20054;-52
2021/09/01 01:40:43;;;;;;;3.85;1.77;;;;;;;;;;4998513;28;20756;-56
2021/09/01 01:43:09;;;;;;;4.50;1.80;;;;;;;;;;4999820;28;20111;-56
2021/09/01 01:45:37;;;;;;;4.13;1.95;;;;;;;;;;4999063;28;20481;-54
2021/09/01 01:48:03;;;;;;;5.03;2.30;;;;;;;;;;5000109;28;20909;-56
2021/09/01 01:50:30;;;;;;;4.38;2.25;;;;;;;;;;4998728;28;20041;-56
2021/09/01 01:52:56;;;;;;;4.90;2.03;;;;;;;;;;4978334;28;20743;-56
2021/09/01 01:55:22;;;;;;;4.47;1.92;;;;;;;;;;4998632;28;20085;-57
2021/09/01 01:57:47;;;;;;;15.68;1.98;;;;;;;;;;5004130;28;20042;-55
2021/09/01 02:00:14;;;;;;;4.63;2.30;;;;;;;;;;5003708;28;20052;-53
2021/09/01 02:02:40;;;;;;;4.18;2.30;;;;;;;;;;5001725;28;20453;-56
2021/09/01 02:05:06;;;;;;;4.03;1.83;;;;;;;;;;5003090;28;20052;-55
2021/09/01 02:07:32;;;;;;;5.88;2.30;;;;;;;;;;5003754;28;21151;-55
2021/09/01 02:09:58;;;;;;;3.17;1.38;;;;;;;;;;4998746;28;20097;-54
2021/09/01 02:12:28;;;;;;;5.60;1.75;;;;;;;;;;5002328;28;20046;-55
2021/09/01 02:14:55;;;;;;;4.07;1.60;;;;;;;;;;5003417;28;20046;-55
2021/09/01 02:17:21;;;;;;;4.45;2.00;;;;;;;;;;5002291;28;20061;-54
2021/09/01 02:19:47;;;;;;;5.38;2.30;;;;;;;;;;5002400;28;20072;-52
2021/09/01 02:22:13;;;;;;;4.40;1.90;;;;;;;;;;4999936;28;20042;-53
2021/09/01 02:24:38;;;;;;;4.03;1.65;;;;;;;;;;5001075;28;20164;-55
2021/09/01 02:27:04;;;;;;;4.97;2.15;;;;;;;;;;5000115;28;20072;-55
2021/09/01 02:29:30;;;;;;;4.18;2.00;;;;;;;;;;5002300;28;20583;-53
2021/09/01 02:31:56;;;;;;;4.13;1.80;;;;;;;;;;5002538;28;20913;-54
2021/09/01 02:34:22;;;;;;;4.63;1.80;;;;;;;;;;5002371;28;20092;-55
2021/09/01 02:36:48;;;;;;;7.05;2.17;;;;;;;;;;5001568;28;20504;-55
2021/09/01 02:39:13;;;;;;;4.80;1.98;;;;;;;;;;5002506;28;20149;-56
2021/09/01 02:41:39;;;;;;;4.75;1.73;;;;;;;;;;5001035;28;20049;-55
2021/09/01 02:44:05;;;;;;;7.78;2.47;;;;;;;;;;5002912;28;20046;-55
2021/09/01 02:46:31;;;;;;;8.85;2.15;;;;;;;;;;4989728;28;20097;-56
2021/09/01 02:48:57;;;;;;;4.50;2.08;;;;;;;;;;4983664;28;20061;-56
2021/09/01 02:51:22;;;;;;;4.25;1.90;;;;;;;;;;4985962;28;20515;-56
2021/09/01 02:53:48;;;;;;;6.80;2.00;;;;;;;;;;4983534;28;20042;-54
2021/09/01 02:56:14;;;;;;;4.03;1.58;;;;;;;;;;5002088;28;20427;-56
2021/09/01 02:58:40;;;;;;;4.22;1.80;;;;;;;;;;5001638;28;20116;-54
2021/09/01 03:01:06;;;;;;;3.67;1.23;;;;;;;;;;5000396;28;20034;-55
2021/09/01 03:03:31;;;;;;;3.38;1.55;;;;;;;;;;5002084;28;22106;-54
2021/09/01 03:05:57;;;;;;;4.07;1.77;;;;;;;;;;5002494;28;20045;-56
2021/09/01 03:08:23;;;;;;;3.15;1.27;;;;;;;;;;5001323;28;20103;-55
2021/09/01 03:10:49;;;;;;;4.07;1.85;;;;;;;;;;5002007;28;20556;-54
2021/09/01 03:13:15;;;;;;;3.38;1.30;;;;;;;;;;5002320;28;20080;-55
2021/09/01 03:15:40;;;;;;;3.38;1.33;;;;;;;;;;5001722;28;20069;-55
2021/09/01 03:18:06;;;;;;;4.72;1.77;;;;;;;;;;5002097;28;20048;-53
2021/09/01 03:20:32;;;;;;;3.28;1.30;;;;;;;;;;4995981;28;20144;-54
2021/09/01 03:22:58;;;;;;;5.60;1.38;;;;;;;;;;5000811;28;20029;-54
2021/09/01 03:25:23;;;;;;;4.20;1.45;;;;;;;;;;5001922;28;20096;-56
2021/09/01 03:27:49;;;;;;;3.60;1.17;;;;;;;;;;5001821;28;20100;-56
2021/09/01 03:30:15;;;;;;;3.47;1.33;;;;;;;;;;5000732;28;20452;-56
2021/09/01 03:32:41;;;;;;;3.85;1.70;;;;;;;;;;5001032;28;20040;-55
2021/09/01 03:35:07;;;;;;;3.90;1.45;;;;;;;;;;5002010;28;20042;-56
2021/09/01 03:37:33;;;;;;;4.03;1.48;;;;;;;;;;5001689;28;20042;-53
2021/09/01 03:39:59;;;;;;;3.92;1.30;;;;;;;;;;5000778;28;20056;-54
2021/09/01 03:42:25;;;;;;;4.63;2.00;;;;;;;;;;4999784;28;20040;-55
2021/09/01 03:44:51;;;;;;;5.00;2.10;;;;;;;;;;5001176;28;20667;-56
2021/09/01 03:47:17;;;;;;;6.32;2.00;;;;;;;;;;5002703;28;20058;-54
2021/09/01 03:49:42;;;;;;;6.15;2.10;;;;;;;;;;5000863;28;20042;-54
2021/09/01 03:52:08;;;;;;;4.47;1.70;;;;;;;;;;5000123;28;20073;-52
2021/09/01 03:54:34;;;;;;;4.65;2.30;;;;;;;;;;4980211;28;20038;-55
2021/09/01 03:57:00;;;;;;;4.05;2.05;;;;;;;;;;5001267;28;20477;-53
2021/09/01 03:59:25;;;;;;;4.47;2.13;;;;;;;;;;5001140;28;20105;-53
2021/09/01 04:01:51;;;;;;;6.35;1.77;;;;;;;;;;5000883;28;20038;-54
2021/09/01 04:04:17;;;;;;;4.13;1.90;;;;;;;;;;4999690;28;20128;-54
2021/09/01 04:06:43;;;;;;;3.88;1.50;;;;;;;;;;5001617;28;20052;-54
2021/09/01 04:09:09;;;;;;;3.33;1.27;;;;;;;;;;5000700;28;20041;-53
2021/09/01 04:11:35;;;;;;;4.60;1.50;;;;;;;;;;5001366;28;20065;-54
2021/09/01 04:14:01;;;;;;;3.22;1.10;;;;;;;;;;5001609;28;20177;-55
2021/09/01 04:16:27;;;;;;;3.28;1.30;;;;;;;;;;5000661;28;20053;-55
2021/09/01 04:18:52;;;;;;;3.40;1.42;;;;;;;;;;5001350;28;20049;-54
2021/09/01 04:21:18;;;;;;;2.88;1.13;;;;;;;;;;4999638;28;20144;-55
2021/09/01 04:23:44;;;;;;;2.85;1.05;;;;;;;;;;4999769;28;20048;-53
2021/09/01 04:26:10;;;;;;;3.33;1.17;;;;;;;;;;4980732;28;20456;-55
2021/09/01 04:28:36;;;;;;;2.75;1.10;;;;;;;;;;5000082;28;20053;-55
2021/09/01 04:31:02;;;;;;;6.45;1.30;;;;;;;;;;5000235;28;20042;-54
2021/09/01 04:33:28;;;;;;;4.82;1.30;;;;;;;;;;4997920;28;20036;-55
2021/09/01 04:35:54;;;;;;;3.35;1.05;;;;;;;;;;5000588;28;20042;-54
2021/09/01 04:38:19;;;;;;;3.47;1.30;;;;;;;;;;5000074;28;20518;-55
2021/09/01 04:40:45;;;;;;;3.33;1.10;;;;;;;;;;4996561;28;20396;-55
2021/09/01 04:43:11;;;;;;;2.60;0.80;;;;;;;;;;5000166;28;20053;-55
2021/09/01 04:45:37;;;;;;;2.97;1.00;;;;;;;;;;4999412;28;20081;-55
2021/09/01 04:48:03;;;;;;;3.35;1.40;;;;;;;;;;5001214;28;20063;-55
2021/09/01 04:50:28;;;;;;;3.03;1.02;;;;;;;;;;5000260;28;20048;-56
2021/09/01 04:52:54;;;;;;;3.10;1.20;;;;;;;;;;5000158;28;20129;-53
2021/09/01 04:55:20;;;;;;;2.47;1.00;;;;;;;;;;4999482;28;21257;-55
2021/09/01 04:57:46;;;;;;;1.52;0.65;;;;;;;;;;5001417;28;20041;-54
2021/09/01 05:00:12;;;;;;;4.15;1.20;;;;;;;;;;4978474;28;20373;-55
2021/09/01 05:02:39;;;;;;;2.50;0.90;;;;;;;;;;4997280;28;20041;-54
2021/09/01 05:05:05;;;;;;;2.80;0.98;;;;;;;;;;5000126;28;20474;-55
2021/09/01 05:07:31;;;;;;;3.72;1.15;;;;;;;;;;4979273;28;20116;-55
2021/09/01 05:09:57;;;;;;;2.40;0.88;;;;;;;;;;4999472;28;20117;-55
2021/09/01 05:12:26;;;;;;;2.15;0.75;;;;;;;;;;4999026;28;20041;-54
2021/09/01 05:14:53;;;;;;;1.85;0.60;;;;;;;;;;5000274;28;20214;-55
2021/09/01 05:17:18;;;;;;;1.80;0.70;;;;;;;;;;4999267;28;20037;-55
2021/09/01 05:19:44;;;;;;;2.97;0.90;;;;;;;;;;4998877;28;20053;-51
2021/09/01 05:22:11;;;;;;;2.10;0.70;;;;;;;;;;4998749;28;20044;-55
2021/09/01 05:24:44;;;;;;;1.15;0.52;;;;;;;;;;4999207;28;20042;-54
2021/09/01 05:27:11;;;;;;;2.97;0.90;;;;;;;;;;4999080;28;20042;-54
2021/09/01 05:29:38;;;;;;;1.80;0.60;;;;;;;;;;4999338;28;20054;-54
2021/09/01 05:32:04;;;;;;;1.65;0.60;;;;;;;;;;5003798;28;20429;-52
2021/09/01 05:34:30;;;;;;;1.30;0.60;;;;;;;;;;5004548;28;20084;-53
2021/09/01 05:36:56;;;;;;;0.95;0.40;;;;;;;;;;5003745;28;20547;-54
2021/09/01 05:39:22;;;;;;;1.27;0.50;;;;;;;;;;5003560;28;21057;-52
2021/09/01 05:41:48;;;;;;;1.65;0.50;;;;;;;;;;5003973;28;20492;-54
2021/09/01 05:44:14;;;;;;;1.13;0.40;;;;;;;;;;4984853;28;20061;-54
2021/09/01 05:46:41;;;;;;;0.90;0.40;;;;;;;;;;5003919;28;20044;-52
2021/09/01 05:49:07;;;;;;;1.55;0.50;;;;;;;;;;5003356;28;20049;-53
2021/09/01 05:51:33;;;;;;;1.13;0.40;;;;;;;;;;5001797;28;20165;-54
2021/09/01 05:53:59;;;;;;;3.40;0.60;;;;;;;;;;5002428;28;20046;-54
2021/09/01 05:56:29;;;;;;;1.17;0.43;;;;;;;;;;5002675;28;20038;-52
2021/09/01 05:58:57;;;;;;;1.92;0.57;;;;;;;;;;5004315;28;20058;-54
2021/09/01 06:01:26;;;;;;;0.88;0.40;;;;;;;;;;5001433;28;20042;-54
2021/09/01 06:03:57;;;;;;;1.95;0.50;;;;;;;;;;5003940;28;20049;-54
2021/09/01 06:06:23;;;;;;;0.60;0.40;;;;;;;;;;5002459;28;20412;-54
2021/09/01 06:08:49;;;;;;;1.85;0.60;;;;;;;;;;5004444;28;20104;-52
2021/09/01 06:11:16;;;;;;;1.75;0.60;;;;;;;;;;5002714;28;20037;-53
2021/09/01 06:13:42;;;;;;;0.98;0.40;;;;;;;;;;5002613;28;20033;-52
2021/09/01 06:16:08;;;;;;;2.00;0.55;;;;;;;;;;4986648;28;22027;-54
2021/09/01 06:18:34;;;;;;;1.85;0.60;;;;;;;;;;5002666;28;20440;-53
2021/09/01 06:20:59;;;;;;;1.90;0.70;;;;;;;;;;5003025;28;20080;-54
2021/09/01 06:23:25;;;;;;;3.35;0.73;;;;;;;;;;5003048;28;20492;-52
2021/09/01 06:25:51;;;;;;;3.08;0.80;;;;;;;;;;5004365;28;20070;-54
2021/09/01 06:28:17;;;;;;;1.95;0.70;;;;;;;;;;5003746;28;20049;-52
2021/09/01 06:30:43;;;;;;;1.50;0.50;;;;;;;;;;5001894;28;20068;-55
2021/09/01 06:33:09;;;;;;;1.00;0.50;;;;;;;;;;5003424;28;20046;-54
2021/09/01 06:35:35;;;;;;;4.03;0.50;;;;;;;;;;5002544;28;20076;-55
2021/09/01 06:38:01;;;;;;;0.70;0.40;;;;;;;;;;5002761;28;20129;-53
2021/09/01 06:40:27;;;;;;;2.90;0.45;;;;;;;;;;5000857;28;20048;-54
2021/09/01 06:42:52;;;;;;;0.70;0.35;;;;;;;;;;5003226;28;20038;-53
2021/09/01 06:45:18;;;;;;;0.52;0.40;;;;;;;;;;5003277;28;20034;-53
2021/09/01 06:47:45;;;;;;;0.73;0.40;;;;;;;;;;5004785;28;20057;-55
2021/09/01 06:50:12;;;;;;;0.32;0.30;;;;;;;;;;5002329;28;20060;-53
2021/09/01 06:52:39;;;;;;;0.52;0.30;;;;;;;;;;5001585;28;20042;-55
2021/09/01 06:55:05;;;;;;;0.85;0.40;;;;;;;;;;5003975;28;20432;-53
2021/09/01 06:57:31;;;;;;;0.57;0.30;;;;;;;;;;5004147;28;20095;-53
2021/09/01 06:59:57;;;;;;;0.70;0.40;;;;;;;;;;5003474;28;20052;-51
2021/09/01 07:02:22;;;;;;;0.90;0.40;;;;;;;;;;5003278;28;20038;-54
2021/09/01 07:04:48;;;;;;;0.55;0.35;;;;;;;;;;5003864;28;20104;-54
2021/09/01 07:07:14;;;;;;;1.42;0.40;;;;;;;;;;5002783;28;20512;-53
2021/09/01 07:09:40;;;;;;;4.05;0.50;;;;;;;;;;4984041;28;20050;-52
2021/09/01 07:12:06;;;;;;;1.42;0.50;;;;;;;;;;5000644;28;20473;-54
2021/09/01 07:14:31;;;;;;;1.25;0.40;;;;;;;;;;5000140;28;20046;-54
2021/09/01 07:16:57;;;;;;;1.02;0.40;;;;;;;;;;5002806;28;20042;-54
2021/09/01 07:19:23;;;;;;;3.13;0.50;;;;;;;;;;5000895;28;20042;-54
2021/09/01 07:21:49;;;;;;;1.25;0.40;;;;;;;;;;5000145;28;20109;-53
2021/09/01 07:24:14;;;;;;;0.73;0.40;;;;;;;;;;5002089;28;20047;-54
2021/09/01 07:26:40;;;;;;;1.17;0.40;;;;;;;;;;5001302;28;20049;-56
2021/09/01 07:29:06;;;;;;;1.65;0.50;;;;;;;;;;5001970;28;20058;-54
2021/09/01 07:31:32;;;;;;;1.25;0.50;;;;;;;;;;5000472;28;20110;-54
2021/09/01 07:33:58;;;;;;;3.95;0.50;;;;;;;;;;5003328;28;20050;-55
2021/09/01 07:36:24;;;;;;;0.57;0.40;;;;;;;;;;5000421;28;20033;-54
2021/09/01 07:38:50;;;;;;;0.93;0.40;;;;;;;;;;5001262;28;20064;-51
2021/09/01 07:41:16;;;;;;;0.93;0.35;;;;;;;;;;5001067;28;20497;-53
2021/09/01 07:43:42;;;;;;;0.82;0.40;;;;;;;;;;5001278;28;20088;-54
2021/09/01 07:46:08;;;;;;;0.82;0.40;;;;;;;;;;5001355;28;20042;-54
2021/09/01 07:48:34;;;;;;;1.95;0.40;;;;;;;;;;5001386;28;20412;-54
2021/09/01 07:51:01;;;;;;;0.60;0.40;;;;;;;;;;5001137;28;20037;-54
2021/09/01 07:53:27;;;;;;;0.77;0.40;;;;;;;;;;4999536;28;20038;-54
2021/09/01 07:55:53;;;;;;;0.30;0.30;;;;;;;;;;5003218;28;20096;-51
2021/09/01 07:58:19;;;;;;;0.93;0.47;;;;;;;;;;5001453;28;20560;-53
2021/09/01 08:00:44;;;;;;;1.65;0.40;;;;;;;;;;5001253;28;20042;-54
2021/09/01 08:03:10;;;;;;;0.75;0.40;;;;;;;;;;5002653;28;20148;-54
2021/09/01 08:05:36;;;;;;;1.75;0.40;;;;;;;;;;5001130;28;20034;-55
2021/09/01 08:08:02;;;;;;;0.60;0.38;;;;;;;;;;5002297;28;20045;-53
2021/09/01 08:10:28;;;;;;;0.30;0.30;;;;;;;;;;5000854;28;20046;-51
2021/09/01 08:12:54;;;;;;;0.60;0.40;;;;;;;;;;5002049;28;20037;-51
2021/09/01 08:15:20;;;;;;;0.30;0.30;;;;;;;;;;5001051;28;20494;-55
2021/09/01 08:17:46;;;;;;;0.50;0.30;;;;;;;;;;5002329;28;20045;-53
2021/09/01 08:20:12;;;;;;;0.70;0.40;;;;;;;;;;4999502;28;20046;-55
2021/09/01 08:22:38;;;;;;;0.57;0.38;;;;;;;;;;5001421;28;20042;-55
2021/09/01 08:25:04;;;;;;;0.30;0.30;;;;;;;;;;4999758;28;20048;-53
2021/09/01 08:27:30;;;;;;;0.73;0.35;;;;;;;;;;5000929;28;20049;-54
2021/09/01 08:29:56;;;;;;;0.52;0.40;;;;;;;;;;4999580;28;20435;-52
2021/09/01 08:32:22;;;;;;;0.30;0.30;;;;;;;;;;4999514;28;20037;-55
2021/09/01 08:34:48;;;;;;;0.52;0.30;;;;;;;;;;4999735;28;20033;-54
2021/09/01 08:37:14;;;;;;;1.40;0.50;;;;;;;;;;4999416;28;20061;-54
2021/09/01 08:39:39;;;;;;;1.42;0.40;;;;;;;;;;4997508;28;20099;-53
2021/09/01 08:42:05;;;;;;;1.17;0.40;;;;;;;;;;5001275;28;20602;-54
2021/09/01 08:44:31;;;;;;;1.20;0.40;;;;;;;;;;4999095;28;20703;-55
2021/09/01 08:46:58;;;;;;;0.68;0.40;;;;;;;;;;5000985;28;20088;-55
2021/09/01 08:49:25;;;;;;;0.30;0.30;;;;;;;;;;4998871;28;20042;-54
2021/09/01 08:51:50;;;;;;;0.57;0.38;;;;;;;;;;5001005;28;20042;-52
2021/09/01 08:54:16;;;;;;;0.63;0.40;;;;;;;;;;5000821;28;20050;-54
2021/09/01 08:56:43;;;;;;;0.63;0.30;;;;;;;;;;4999544;28;20408;-54
2021/09/01 08:59:09;;;;;;;0.30;0.30;;;;;;;;;;4999982;28;20033;-51
2021/09/01 09:01:42;;;;;;;0.70;0.40;;;;;;;;;;4998503;28;21816;-57
2021/09/01 09:04:29;;;;;;;0.63;0.38;;;;;;;;;;4999577;28;20104;-54
2021/09/01 09:06:56;;;;;;;1.15;0.38;;;;;;;;;;4998998;28;20084;-55
2021/09/01 09:09:32;;;;;;;0.38;0.30;;;;;;;;;;4999652;28;20439;-54
2021/09/01 09:11:58;;;;;;;0.47;0.30;;;;;;;;;;5001302;28;20069;-54
2021/09/01 09:14:26;;;;;;;0.30;0.30;;;;;;;;;;4999000;28;20382;-52
2021/09/01 09:17:02;;;;;;;0.65;0.32;;;;;;;;;;5000058;28;20508;-55
2021/09/01 09:20:05;;;;;;;0.20;0.20;;;;;;;;;;4998222;28;20434;-52
2021/09/01 09:22:35;;;;;;;0.30;0.30;;;;;;;;;;4916333;29;20044;-52
2021/09/01 09:25:04;;;;;;;0.30;0.30;;;;;;;;;;4986504;28;20663;-52
2021/09/01 09:27:39;;;;;;;0.52;0.30;;;;;;;;;;4999534;28;20362;-55
2021/09/01 09:30:25;;;;;;;2.13;0.35;;;;;;;;;;4999224;28;20046;-54
2021/09/01 09:32:56;;;;;;;2.53;0.40;;;;;;;;;;4998771;28;20040;-53
2021/09/01 09:35:22;;;;;;;3.45;0.40;;;;;;;;;;4998413;28;20045;-55
2021/09/01 09:38:01;;;;;;;0.75;0.30;;;;;;;;;;4999798;28;20068;-53
2021/09/01 09:40:28;;;;;;;0.52;0.40;;;;;;;;;;4998516;28;20034;-54
2021/09/01 09:42:54;;;;;;;0.73;0.40;;;;;;;;;;5000401;28;20437;-54
2021/09/01 09:45:22;;;;;;;0.43;0.40;;;;;;;;;;4998802;28;20064;-53
2021/09/01 09:47:48;;;;;;;0.95;0.40;;;;;;;;;;4999594;28;21052;-53
2021/09/01 09:50:15;;;;;;;0.70;0.47;;;;;;;;;;4997783;28;20042;-54
2021/09/01 09:52:40;;;;;;;0.80;0.38;;;;;;;;;;4999561;28;20109;-53
2021/09/01 09:55:10;;;;;;;1.55;0.40;;;;;;;;;;4999664;28;20578;-51
2021/09/01 09:57:45;;;;;;;0.63;0.35;;;;;;;;;;4999167;28;20485;-53
2021/09/01 10:00:11;;;;;;;6.90;0.50;;;;;;;;;;4999742;28;20045;-52
2021/09/01 10:02:41;;;;;;;1.42;0.50;;;;;;;;;;4999537;28;20073;-52
2021/09/01 10:05:08;;;;;;;3.17;0.57;;;;;;;;;;5000840;28;20045;-55
2021/09/01 10:07:33;;;;;;;0.75;0.40;;;;;;;;;;4997964;28;20041;-55
2021/09/01 10:09:59;;;;;;;1.08;0.43;;;;;;;;;;4997810;28;20053;-54
2021/09/01 10:12:26;;;;;;;1.45;0.50;;;;;;;;;;4998315;28;20120;-52
2021/09/01 10:14:52;;;;;;;1.23;0.50;;;;;;;;;;4999367;28;20053;-53
2021/09/01 10:17:19;;;;;;;0.93;0.40;;;;;;;;;;4984668;28;20057;-55
2021/09/01 10:19:45;;;;;;;0.38;0.38;;;;;;;;;;4984760;28;20034;-55
2021/09/01 10:22:11;;;;;;;0.80;0.40;;;;;;;;;;4984546;28;20045;-54
2021/09/01 10:24:38;;;;;;;1.30;0.40;;;;;;;;;;4983042;28;20038;-55
2021/09/01 10:27:08;;;;;;;0.38;0.32;;;;;;;;;;4983519;28;20046;-54
2021/09/01 10:29:38;;;;;;;0.55;0.30;;;;;;;;;;4981951;28;20189;-55
2021/09/01 10:32:16;;;;;;;0.35;0.30;;;;;;;;;;4983839;28;20065;-55
2021/09/01 10:34:42;;;;;;;1.25;0.40;;;;;;;;;;4983408;28;20054;-54
2021/09/01 10:37:08;;;;;;;1.00;0.40;;;;;;;;;;4984606;28;20035;-54
2021/09/01 10:39:33;;;;;;;2.13;0.40;;;;;;;;;;4983626;28;20052;-54
2021/09/01 10:42:19;;;;;;;1.10;0.50;;;;;;;;;;4983014;28;20076;-54
2021/09/01 10:44:46;;;;;;;0.88;0.40;;;;;;;;;;4982267;28;20311;-56
2021/09/01 10:47:11;;;;;;;0.77;0.40;;;;;;;;;;4985154;28;20044;-55
2021/09/01 10:49:57;;;;;;;1.38;0.43;;;;;;;;;;4983332;28;20070;-55
2021/09/01 10:52:22;;;;;;;0.50;0.30;;;;;;;;;;4981312;28;20074;-56
2021/09/01 10:54:50;;;;;;;0.38;0.30;;;;;;;;;;4984063;28;20716;-55
2021/09/01 10:57:23;;;;;;;0.57;0.38;;;;;;;;;;4983987;28;20041;-54
2021/09/01 10:59:49;;;;;;;0.40;0.30;;;;;;;;;;4983771;28;20041;-55
2021/09/01 11:02:16;;;;;;;0.47;0.30;;;;;;;;;;4982965;28;20046;-52
2021/09/01 11:04:54;;;;;;;0.35;0.30;;;;;;;;;;4982807;28;20042;-53
2021/09/01 11:07:24;;;;;;;0.70;0.30;;;;;;;;;;4982718;28;20603;-55
2021/09/01 11:09:51;;;;;;;0.30;0.30;;;;;;;;;;4982871;28;20083;-55
2021/09/01 11:12:17;;;;;;;0.30;0.30;;;;;;;;;;4983468;28;20038;-55
2021/09/01 11:14:44;;;;;;;0.30;0.30;;;;;;;;;;4981853;28;20404;-55
2021/09/01 11:17:15;;;;;;;0.77;0.40;;;;;;;;;;4999472;28;20041;-54
2021/09/01 11:19:42;;;;;;;0.63;0.30;;;;;;;;;;5002345;28;20034;-52
2021/09/01 11:22:09;;;;;;;0.80;0.40;;;;;;;;;;5001931;28;20516;-54
2021/09/01 11:24:45;;;;;;;0.65;0.40;;;;;;;;;;5000545;28;20041;-55
2021/09/01 11:27:13;;;;;;;1.02;0.43;;;;;;;;;;5001365;28;20113;-53
2021/09/01 11:29:39;;;;;;;1.63;0.50;;;;;;;;;;5000599;28;22099;-52
2021/09/01 11:32:05;;;;;;;0.57;0.38;;;;;;;;;;4999981;28;20045;-54
2021/09/01 11:34:31;;;;;;;0.65;0.40;;;;;;;;;;4998718;28;20161;-56
2021/09/01 11:36:57;;;;;;;0.40;0.30;;;;;;;;;;5000644;28;20795;-55
2021/09/01 11:39:23;;;;;;;0.77;0.40;;;;;;;;;;5000402;28;20038;-56
2021/09/01 11:42:00;;;;;;;0.65;0.40;;;;;;;;;;5000559;28;20041;-52
2021/09/01 11:44:26;;;;;;;1.05;0.43;;;;;;;;;;5001235;28;20086;-55
2021/09/01 11:46:52;;;;;;;1.08;0.40;;;;;;;;;;5001498;28;20076;-55
2021/09/01 11:49:18;;;;;;;0.60;0.40;;;;;;;;;;5000309;28;20409;-54
2021/09/01 11:51:44;;;;;;;1.90;0.40;;;;;;;;;;5001139;28;20115;-56
2021/09/01 11:54:11;;;;;;;1.05;0.40;;;;;;;;;;5002119;28;20061;-55
2021/09/01 11:56:37;;;;;;;2.05;0.50;;;;;;;;;;5001279;28;20033;-54
2021/09/01 11:59:04;;;;;;;2.83;0.50;;;;;;;;;;5001084;28;20049;-56
2021/09/01 12:01:30;;;;;;;3.83;0.50;;;;;;;;;;4999631;28;20137;-55
2021/09/01 12:03:57;;;;;;;1.98;0.50;;;;;;;;;;5001394;28;20068;-55
2021/09/01 12:06:32;;;;;;;1.17;0.47;;;;;;;;;;4999126;28;20061;-55
2021/09/01 12:08:58;;;;;;;3.90;0.57;;;;;;;;;;5000322;28;20049;-53
2021/09/01 12:11:24;;;;;;;1.48;0.50;;;;;;;;;;4998323;28;20045;-54
2021/09/01 12:13:51;;;;;;;1.63;0.50;;;;;;;;;;4982992;28;20041;-53
2021/09/01 12:16:24;;;;;;;2.20;0.60;;;;;;;;;;5000225;28;20060;-55
2021/09/01 12:18:51;;;;;;;1.50;0.50;;;;;;;;;;5000221;28;20041;-55
2021/09/01 12:21:17;;;;;;;1.98;0.50;;;;;;;;;;4999803;28;20038;-56
2021/09/01 12:23:43;;;;;;;2.30;0.75;;;;;;;;;;4998950;28;20048;-54
2021/09/01 12:26:09;;;;;;;3.28;1.13;;;;;;;;;;4999634;28;20082;-55
2021/09/01 12:28:45;;;;;;;3.28;1.15;;;;;;;;;;4999996;28;20152;-56
2021/09/01 12:31:19;;;;;;;2.35;0.70;;;;;;;;;;4998983;28;20038;-54
2021/09/01 12:33:45;;;;;;;1.95;0.60;;;;;;;;;;4998954;28;20050;-56
2021/09/01 12:36:11;;;;;;;1.33;0.60;;;;;;;;;;4999972;28;20041;-56
2021/09/01 12:38:36;;;;;;;4.00;0.90;;;;;;;;;;4998651;28;20038;-56
2021/09/01 12:41:18;;;;;;;2.10;0.70;;;;;;;;;;4998397;28;20065;-56
2021/09/01 12:43:44;;;;;;;2.53;0.82;;;;;;;;;;5000441;28;20033;-57
2021/09/01 12:46:10;;;;;;;6.15;0.88;;;;;;;;;;5001043;28;20045;-57
2021/09/01 12:48:41;;;;;;;2.60;0.88;;;;;;;;;;4999039;28;20042;-56
2021/09/01 12:51:09;;;;;;;2.45;0.82;;;;;;;;;;4998509;28;20098;-54
2021/09/01 12:53:36;;;;;;;6.10;1.05;;;;;;;;;;4998350;28;20049;-56
2021/09/01 12:56:02;;;;;;;3.78;1.00;;;;;;;;;;4981348;28;20061;-57
2021/09/01 12:58:28;;;;;;;5.18;1.30;;;;;;;;;;4999316;28;20145;-57
2021/09/01 13:00:54;;;;;;;2.97;1.17;;;;;;;;;;4999960;28;20053;-57
2021/09/01 13:03:19;;;;;;;3.17;1.30;;;;;;;;;;4999653;28;20046;-57
2021/09/01 13:05:46;;;;;;;3.28;1.15;;;;;;;;;;4981226;28;20042;-57
2021/09/01 13:08:12;;;;;;;5.93;1.20;;;;;;;;;;4999196;28;20041;-56
2021/09/01 13:10:38;;;;;;;4.45;1.70;;;;;;;;;;4999255;28;20071;-57
2021/09/01 13:13:05;;;;;;;3.70;1.60;;;;;;;;;;4998933;28;20500;-57
2021/09/01 13:15:31;;;;;;;3.65;1.48;;;;;;;;;;4998656;28;20060;-57
2021/09/01 13:17:56;;;;;;;6.60;1.95;;;;;;;;;;5001728;28;20056;-56
2021/09/01 13:20:23;;;;;;;4.70;1.52;;;;;;;;;;4999481;28;20097;-57
2021/09/01 13:22:50;;;;;;;4.05;2.10;;;;;;;;;;5000358;28;20125;-58
2021/09/01 13:25:18;;;;;;;3.80;1.90;;;;;;;;;;4980577;28;20034;-56
2021/09/01 13:27:44;;;;;;;6.45;2.47;;;;;;;;;;5000470;28;20396;-57
2021/09/01 13:30:11;;;;;;;4.40;2.30;;;;;;;;;;4999153;28;20065;-56
2021/09/01 13:32:37;;;;;;;5.63;2.88;;;;;;;;;;4998244;28;20037;-55
2021/09/01 13:35:04;;;;;;;6.35;2.80;;;;;;;;;;5001022;28;20100;-57
2021/09/01 13:37:29;;;;;;;4.80;2.35;;;;;;;;;;4998947;28;20909;-57
2021/09/01 13:39:55;;;;;;;6.38;2.75;;;;;;;;;;4999341;28;20037;-57
2021/09/01 13:42:21;;;;;;;6.15;3.30;;;;;;;;;;4999853;28;20044;-57
2021/09/01 13:44:47;;;;;;;6.03;3.33;;;;;;;;;;5001607;28;20049;-56
2021/09/01 13:47:13;;;;;;;5.90;3.22;;;;;;;;;;4999639;28;20600;-55
2021/09/01 13:49:38;;;;;;;10.18;3.42;;;;;;;;;;4999497;28;20566;-55
2021/09/01 13:52:04;;;;;;;6.78;3.80;;;;;;;;;;5002139;28;20057;-56
2021/09/01 13:54:31;;;;;;;6.00;3.55;;;;;;;;;;4983837;28;20088;-56
2021/09/01 13:56:57;;;;;;;6.90;3.70;;;;;;;;;;5004428;28;20050;-54
2021/09/01 13:59:23;;;;;;;7.22;3.47;;;;;;;;;;5002396;28;20535;-53
2021/09/01 14:01:49;;;;;;;6.93;3.80;;;;;;;;;;5003948;28;20088;-55
2021/09/01 14:04:15;;;;;;;6.53;3.85;;;;;;;;;;5003666;28;20042;-55
2021/09/01 14:06:41;;;;;;;7.35;4.03;;;;;;;;;;5002702;28;20054;-52
2021/09/01 14:09:08;;;;;;;8.88;4.45;;;;;;;;;;5004161;28;20161;-54
2021/09/01 14:11:34;;;;;;;8.30;4.07;;;;;;;;;;5002962;28;20128;-54
2021/09/01 14:14:00;;;;;;;10.15;4.47;;;;;;;;;;5003875;28;20049;-56
2021/09/01 14:16:26;;;;;;;10.00;4.43;;;;;;;;;;5002428;28;20064;-55
2021/09/01 14:18:52;;;;;;;8.25;4.18;;;;;;;;;;5003195;28;20642;-56
2021/09/01 14:21:18;;;;;;;8.20;4.05;;;;;;;;;;5001451;28;20050;-56
2021/09/01 14:23:45;;;;;;;6.47;3.67;;;;;;;;;;5003127;28;20041;-56
2021/09/01 14:26:15;;;;;;;8.70;3.92;;;;;;;;;;4981529;28;20503;-55
2021/09/01 14:28:41;;;;;;;6.30;3.67;;;;;;;;;;5002183;28;20393;-55
2021/09/01 14:31:08;;;;;;;9.02;3.50;;;;;;;;;;5001368;28;20050;-55
2021/09/01 14:33:34;;;;;;;5.45;2.90;;;;;;;;;;5001262;28;20038;-55
2021/09/01 14:36:00;;;;;;;5.30;2.88;;;;;;;;;;5002303;28;20049;-56
2021/09/01 14:38:26;;;;;;;5.95;2.65;;;;;;;;;;5001839;28;20119;-57
2021/09/01 14:40:52;;;;;;;5.68;2.80;;;;;;;;;;5001977;28;20209;-56
2021/09/01 14:43:19;;;;;;;5.15;2.42;;;;;;;;;;5001416;28;20065;-56